CheckWX is a tool to help pilots better visualize weather data.  It is not intended as a substitute for an official pre-flight weather briefing.

07:19:52 UTC

EGUW METAR
RAF Wattisham Airport
Stowmarket, United Kingdom
Current

1 hour ago

EGUW 050550Z AUTO 12009KT 9999 NCD 07/04 Q1017
Observed
Apr-5 @ 05:50 UTC
Wind
  • 120° at 9 KTS
Visibility
10,000+ meters
Flight Rules
VFR
Cloud Levels
  • Clear skies
Temperature
C / 45°F
Dewpoint
C / 39°F
Humidity
81%
Altimeter
30.03" Hg
Pressure
1016.92 hPa
Previous

2 hours ago

EGUW 050450Z AUTO 11006KT 9999 NCD 07/04 Q1018
Observed
Apr-5 @ 04:50 UTC
Wind
  • 110° at 6 KTS
Visibility
10,000+ meters
Flight Rules
VFR
Cloud Levels
  • Clear skies
Temperature
C / 45°F
Dewpoint
C / 39°F
Humidity
81%
Altimeter
30.06" Hg
Pressure
1017.92 hPa
Previous

3 hours ago

EGUW 050350Z AUTO 13006KT 9999 NCD 07/04 Q1018
Observed
Apr-5 @ 03:50 UTC
Wind
  • 130° at 6 KTS
Visibility
10,000+ meters
Flight Rules
VFR
Cloud Levels
  • Clear skies
Temperature
C / 45°F
Dewpoint
C / 39°F
Humidity
81%
Altimeter
30.06" Hg
Pressure
1017.92 hPa